createdAt,value
2022-11-21T00:01:54.378Z,99488.00
2022-11-21T00:04:23.856Z,99492.22
2022-11-21T00:06:53.189Z,99493.19
2022-11-21T00:09:22.499Z,99493.06
2022-11-21T00:11:53.558Z,99497.50
2022-11-21T00:14:22.911Z,99487.78
2022-11-21T00:16:57.444Z,99493.69
2022-11-21T00:19:27.104Z,99494.34
2022-11-21T00:21:56.448Z,99501.06
2022-11-21T00:24:26.000Z,99506.41
2022-11-21T00:26:55.520Z,99513.97
2022-11-21T00:29:24.877Z,99514.94
2022-11-21T00:31:56.798Z,99516.91
2022-11-21T00:34:26.334Z,99520.22
2022-11-21T00:36:55.777Z,99519.72
2022-11-21T00:39:25.062Z,99520.44
2022-11-21T00:41:54.373Z,99518.81
2022-11-21T00:44:23.673Z,99517.41
2022-11-21T00:46:52.961Z,99513.72
2022-11-21T00:49:24.902Z,99511.72
2022-11-21T00:51:54.247Z,99516.13
2022-11-21T00:54:23.546Z,99516.09
2022-11-21T00:56:53.046Z,99520.78
2022-11-21T00:59:22.336Z,99521.31
2022-11-21T01:01:51.710Z,99517.19
2022-11-21T01:04:21.029Z,99520.72
2022-11-21T01:06:52.892Z,99528.50
2022-11-21T01:09:22.332Z,99526.00
2022-11-21T01:11:51.616Z,99526.06
2022-11-21T01:14:20.970Z,99534.69
2022-11-21T01:16:50.247Z,99527.56
2022-11-21T01:19:19.554Z,99528.31
2022-11-21T01:21:48.825Z,99529.22
2022-11-21T01:24:20.687Z,99532.59
2022-11-21T01:26:51.143Z,99533.66
2022-11-21T01:29:20.562Z,99537.09
2022-11-21T01:31:50.057Z,99533.19
2022-11-21T01:34:19.444Z,99536.56
2022-11-21T01:36:48.743Z,99534.09
2022-11-21T01:39:18.124Z,99538.34
2022-11-21T01:41:50.033Z,99545.13
2022-11-21T01:44:20.824Z,99543.25
2022-11-21T01:46:50.277Z,99541.34
2022-11-21T01:49:20.019Z,99543.44
2022-11-21T01:51:50.260Z,99547.75
2022-11-21T01:54:20.701Z,99539.06
2022-11-21T01:56:53.444Z,99539.84
2022-11-21T01:59:24.530Z,99540.94
2022-11-21T02:01:54.119Z,99534.75
2022-11-21T02:04:23.537Z,99547.97
2022-11-21T02:06:52.886Z,99549.56
2022-11-21T02:09:22.191Z,99551.38
2022-11-21T02:11:55.305Z,99553.09
2022-11-21T02:14:24.686Z,99541.84
2022-11-21T02:16:54.060Z,99538.41
2022-11-21T02:19:25.321Z,99544.41
2022-11-21T02:21:55.818Z,99548.00
2022-11-21T02:24:26.506Z,99545.00
2022-11-21T02:26:58.620Z,99534.34
2022-11-21T02:29:28.131Z,99535.88
2022-11-21T02:31:57.601Z,99539.78
2022-11-21T02:34:27.103Z,99537.50
2022-11-21T02:36:56.683Z,99528.88
2022-11-21T02:39:26.607Z,99548.06
2022-11-21T02:42:00.514Z,99543.06
2022-11-21T02:44:30.949Z,99543.06
2022-11-21T02:47:00.209Z,99542.75
2022-11-21T02:49:34.551Z,99545.69
2022-11-21T02:52:03.983Z,99542.78
2022-11-21T02:54:33.250Z,99540.88
2022-11-21T02:57:05.176Z,99544.25
2022-11-21T02:59:34.982Z,99552.03
2022-11-21T03:02:04.270Z,99553.75
2022-11-21T03:04:33.648Z,99554.66
2022-11-21T03:07:03.057Z,99553.94
2022-11-21T03:09:32.438Z,99548.72
2022-11-21T03:12:01.811Z,99546.00
2022-11-21T03:14:33.829Z,99551.28
2022-11-21T03:17:03.185Z,99553.75
2022-11-21T03:19:32.685Z,99554.66
2022-11-21T03:22:02.052Z,99554.00
2022-11-21T03:24:31.447Z,99548.72
2022-11-21T03:27:02.046Z,99542.50
2022-11-21T03:29:34.005Z,99551.50
2022-11-21T03:32:03.338Z,99556.16
2022-11-21T03:34:32.656Z,99549.16
2022-11-21T03:37:01.973Z,99551.91
2022-11-21T03:39:32.006Z,99556.31
2022-11-21T03:42:01.435Z,99553.84
2022-11-21T03:44:32.265Z,99550.25
2022-11-21T03:47:04.262Z,99551.09
2022-11-21T03:49:33.625Z,99547.41
2022-11-21T03:52:02.875Z,99555.16
2022-11-21T03:54:32.242Z,99553.50
2022-11-21T03:57:01.518Z,99559.59
2022-11-21T03:59:30.879Z,99561.28
2022-11-21T04:02:01.403Z,99570.16
2022-11-21T04:04:33.418Z,99565.97
2022-11-21T04:07:02.818Z,99563.50
2022-11-21T04:09:32.205Z,99566.88
2022-11-21T04:12:06.440Z,99561.72
2022-11-21T04:14:36.980Z,99555.66
2022-11-21T04:17:06.298Z,99553.06
2022-11-21T04:19:38.190Z,99547.94
2022-11-21T04:22:07.558Z,99555.06
2022-11-21T04:24:36.856Z,99561.78
2022-11-21T04:27:06.307Z,99560.72
2022-11-21T04:29:35.584Z,99563.31
2022-11-21T04:32:04.895Z,99558.94
2022-11-21T04:34:34.205Z,99556.38
2022-11-21T04:37:11.272Z,99554.03
2022-11-21T04:39:41.034Z,99561.19
2022-11-21T04:42:10.330Z,99558.66
2022-11-21T04:44:39.623Z,99554.25
2022-11-21T04:47:08.936Z,99554.34
2022-11-21T04:49:38.257Z,99558.75
2022-11-21T04:52:10.305Z,99553.69
2022-11-21T04:54:39.628Z,99562.34
2022-11-21T04:57:08.879Z,99557.13
2022-11-21T04:59:38.211Z,99555.34
2022-11-21T05:02:07.479Z,99548.47
2022-11-21T05:04:36.803Z,99545.84
2022-11-21T05:07:06.173Z,99545.13
2022-11-21T05:09:38.161Z,99544.22
2022-11-21T05:12:20.309Z,99544.81
2022-11-21T05:14:49.780Z,99540.41
2022-11-21T05:17:19.188Z,99542.97
2022-11-21T05:19:48.536Z,99536.91
2022-11-21T05:22:17.943Z,99540.25
2022-11-21T05:24:49.889Z,99546.28
2022-11-21T05:27:19.254Z,99537.34
2022-11-21T05:29:48.514Z,99535.63
2022-11-21T05:32:17.922Z,99545.22
2022-11-21T05:34:47.274Z,99541.81
2022-11-21T05:37:16.580Z,99540.81
2022-11-21T05:39:45.959Z,99541.72
2022-11-21T05:42:37.968Z,99538.31
2022-11-21T05:45:05.114Z,99544.44
2022-11-21T05:47:34.440Z,99546.03
2022-11-21T05:50:03.802Z,99550.38
2022-11-21T05:52:33.141Z,99547.88
2022-11-21T05:55:02.512Z,99550.50
2022-11-21T05:57:34.435Z,99538.31
2022-11-21T06:00:03.788Z,99546.13
2022-11-21T06:02:46.214Z,99533.94
2022-11-21T06:05:15.608Z,99541.72
2022-11-21T06:07:44.931Z,99545.97
2022-11-21T06:10:14.533Z,99543.31
2022-11-21T06:12:46.409Z,99537.19
2022-11-21T06:15:15.752Z,99534.78
2022-11-21T06:17:45.026Z,99531.28
2022-11-21T06:20:14.600Z,99532.25
2022-11-21T06:22:43.884Z,99520.00
2022-11-21T06:25:13.213Z,99519.09
2022-11-21T06:27:42.502Z,99522.53
2022-11-21T06:30:19.045Z,99513.75
2022-11-21T06:32:51.351Z,99505.91
2022-11-21T06:35:20.731Z,99499.81
2022-11-21T06:37:53.560Z,99493.75
2022-11-21T06:40:23.264Z,99495.53
2022-11-21T06:42:52.547Z,99506.81
2022-11-21T06:45:24.439Z,99499.81
2022-11-21T06:47:53.790Z,99502.25
2022-11-21T06:50:23.058Z,99505.78
2022-11-21T06:52:52.347Z,99507.41
2022-11-21T06:55:22.151Z,99521.19
2022-11-21T06:57:51.525Z,99520.13
2022-11-21T07:00:21.392Z,99518.44
2022-11-21T07:02:53.331Z,99518.50
2022-11-21T07:05:22.727Z,99521.91
2022-11-21T07:07:52.035Z,99515.69
2022-11-21T07:10:21.408Z,99519.22
2022-11-21T07:13:03.191Z,99517.53
2022-11-21T07:15:32.722Z,99511.47
2022-11-21T07:18:04.773Z,99513.34
2022-11-21T07:20:34.130Z,99506.25
2022-11-21T07:23:03.799Z,99514.97
2022-11-21T07:25:36.575Z,99501.09
2022-11-21T07:28:07.325Z,99508.13
2022-11-21T07:30:36.690Z,99510.78
2022-11-21T07:33:09.426Z,99509.84
2022-11-21T07:35:39.001Z,99505.47
2022-11-21T07:38:08.267Z,99502.59
2022-11-21T07:40:37.628Z,99509.44
2022-11-21T07:43:10.829Z,99495.41
2022-11-21T07:45:40.702Z,99493.31
2022-11-21T07:48:13.058Z,99485.28
2022-11-21T07:50:42.559Z,99491.88
2022-11-21T07:53:13.227Z,99486.72
2022-11-21T07:55:42.583Z,99483.34
2022-11-21T07:58:13.143Z,99494.75
2022-11-21T08:00:43.445Z,99486.13
2022-11-21T08:03:15.788Z,99492.06
2022-11-21T08:05:45.815Z,99489.41
2022-11-21T08:08:15.539Z,99493.59
2022-11-21T08:10:45.452Z,99490.13
2022-11-21T08:13:14.815Z,99481.28
2022-11-21T08:15:44.123Z,99489.84
2022-11-21T08:18:19.024Z,99477.56
2022-11-21T08:20:48.415Z,99469.50
2022-11-21T08:23:17.771Z,99464.06
2022-11-21T08:25:47.115Z,99458.69
2022-11-21T08:28:16.406Z,99456.09
2022-11-21T08:30:45.880Z,99459.47
2022-11-21T08:33:17.817Z,99462.78
2022-11-21T08:35:47.206Z,99466.94
2022-11-21T08:38:16.528Z,99457.28
2022-11-21T08:40:45.853Z,99457.84
2022-11-21T08:43:15.197Z,99456.94
2022-11-21T08:45:44.494Z,99458.53
2022-11-21T08:48:15.468Z,99460.13
2022-11-21T08:50:47.406Z,99458.38
2022-11-21T08:53:16.907Z,99462.72
2022-11-21T08:55:46.211Z,99471.31
2022-11-21T08:58:15.535Z,99472.03
2022-11-21T09:00:44.823Z,99469.31
2022-11-21T09:03:19.059Z,99471.72
2022-11-21T09:05:53.753Z,99462.13
2022-11-21T09:08:23.149Z,99465.50
2022-11-21T09:10:52.473Z,99465.31
2022-11-21T09:13:21.877Z,99460.09
2022-11-21T09:16:03.632Z,99463.38
2022-11-21T09:18:32.978Z,99457.25
2022-11-21T09:21:05.100Z,99452.75
2022-11-21T09:23:34.632Z,99457.00
2022-11-21T09:26:04.045Z,99452.63
2022-11-21T09:28:33.415Z,99441.19
2022-11-21T09:31:02.716Z,99445.41
2022-11-21T09:33:32.073Z,99440.03
2022-11-21T09:36:01.613Z,99433.03
2022-11-21T09:38:33.509Z,99437.31
2022-11-21T09:41:24.208Z,99435.25
2022-11-21T09:43:55.932Z,99436.13
2022-11-21T09:46:25.499Z,99445.69
2022-11-21T09:48:56.087Z,99439.41
2022-11-21T09:51:25.471Z,99448.09
2022-11-21T09:53:59.236Z,99439.34
2022-11-21T09:56:28.613Z,99443.31
2022-11-21T09:59:01.063Z,99438.84
2022-11-21T10:01:30.613Z,99432.16
2022-11-21T10:03:59.918Z,99428.22
2022-11-21T10:06:29.567Z,99420.53
2022-11-21T10:09:06.162Z,99411.66
2022-11-21T10:11:58.214Z,99405.31
2022-11-21T10:14:29.791Z,99406.63
2022-11-21T10:17:00.601Z,99398.31
2022-11-21T10:19:47.777Z,99404.16
2022-11-21T10:22:26.892Z,99391.38
2022-11-21T10:25:01.758Z,99383.72
2022-11-21T10:27:33.162Z,99382.28
2022-11-21T10:30:03.018Z,99372.88
2022-11-21T10:32:33.797Z,99372.03
2022-11-21T10:35:04.693Z,99365.94
2022-11-21T10:37:34.957Z,99362.59
2022-11-21T10:40:10.587Z,99357.09
2022-11-21T10:42:41.204Z,99353.03
2022-11-21T10:45:16.986Z,99354.75
2022-11-21T10:47:46.956Z,99349.38
2022-11-21T10:50:23.302Z,99342.09
2022-11-21T10:52:53.089Z,99339.19
2022-11-21T10:55:24.970Z,99328.34
2022-11-21T10:57:55.069Z,99327.78
2022-11-21T11:00:25.639Z,99327.56
2022-11-21T11:03:04.764Z,99327.63
2022-11-21T11:05:34.958Z,99325.94
2022-11-21T11:08:08.684Z,99331.94
2022-11-21T11:10:41.261Z,99315.88
2022-11-21T11:13:46.796Z,99320.25
2022-11-21T11:16:18.196Z,99311.31
2022-11-21T11:18:49.179Z,99309.28
2022-11-21T11:21:19.545Z,99291.72
2022-11-21T11:23:48.911Z,99287.47
2022-11-21T11:26:25.739Z,99288.22
2022-11-21T11:28:55.955Z,99274.41
2022-11-21T11:31:25.737Z,99272.59
2022-11-21T11:33:56.114Z,99280.97
2022-11-21T11:36:37.398Z,99272.78
2022-11-21T11:39:10.133Z,99267.72
2022-11-21T11:42:05.619Z,99254.63
2022-11-21T11:44:48.307Z,99248.47
2022-11-21T11:47:33.621Z,99248.91
2022-11-21T11:50:16.937Z,99246.75
2022-11-21T11:52:55.445Z,99231.66
2022-11-21T11:55:26.288Z,99230.38
2022-11-21T11:57:58.570Z,99230.16
2022-11-21T12:00:33.687Z,99222.91
2022-11-21T12:03:04.571Z,99219.34
2022-11-21T12:05:34.170Z,99216.47
2022-11-21T12:11:24.724Z,99201.09
2022-11-21T12:13:57.464Z,99206.47
2022-11-21T12:16:27.273Z,99201.97
2022-11-21T12:18:58.292Z,99207.75
2022-11-21T12:21:27.706Z,99198.28
2022-11-21T12:23:57.781Z,99203.06
2022-11-21T12:26:48.273Z,99203.91
2022-11-21T12:29:23.321Z,99199.91
2022-11-21T12:31:56.754Z,99195.09
2022-11-21T12:34:30.566Z,99191.75
2022-11-21T12:37:00.044Z,99178.09
2022-11-21T12:39:37.735Z,99178.72
2022-11-21T12:42:21.352Z,99175.69
2022-11-21T12:44:57.274Z,99162.56
2022-11-21T12:47:30.454Z,99160.69
2022-11-21T12:50:14.498Z,99151.47
2022-11-21T12:52:56.629Z,99149.88
2022-11-21T12:55:36.023Z,99133.41
2022-11-21T12:58:12.753Z,99137.81
2022-11-21T13:00:55.804Z,99124.88
2022-11-21T13:03:29.711Z,99122.50
2022-11-21T13:05:59.012Z,99122.44
2022-11-21T13:08:28.628Z,99119.34
2022-11-21T13:11:19.030Z,99117.09
2022-11-21T13:13:48.777Z,99113.69
2022-11-21T13:16:36.820Z,99108.28
2022-11-21T13:19:07.521Z,99102.94
2022-11-21T13:21:43.343Z,99099.25
2022-11-21T13:24:12.916Z,99096.19
2022-11-21T13:26:50.599Z,99096.25
2022-11-21T13:29:20.073Z,99093.06
2022-11-21T13:31:52.150Z,99092.63
2022-11-21T13:34:36.590Z,99091.50
2022-11-21T13:37:06.499Z,99082.69
2022-11-21T13:39:36.914Z,99076.53
2022-11-21T13:42:22.359Z,99069.59
2022-11-21T13:44:51.868Z,99066.13
2022-11-21T13:47:38.934Z,99052.25
2022-11-21T13:50:16.822Z,99050.66
2022-11-21T13:52:47.266Z,99051.81
2022-11-21T13:55:19.768Z,99053.38
2022-11-21T13:57:52.171Z,99049.13
2022-11-21T14:00:24.488Z,99032.72
2022-11-21T14:02:56.780Z,99023.91
2022-11-21T14:05:41.102Z,99018.66
2022-11-21T14:08:15.265Z,99024.84
2022-11-21T14:10:45.973Z,99023.91
2022-11-21T14:13:20.154Z,99014.34
2022-11-21T14:15:50.832Z,99002.09
2022-11-21T14:18:23.026Z,99000.63
2022-11-21T14:20:56.916Z,98992.78
2022-11-21T14:23:26.586Z,98980.41
2022-11-21T14:25:56.582Z,98982.47
2022-11-21T14:28:26.277Z,98976.44
2022-11-21T14:30:58.547Z,98969.16
2022-11-21T14:33:32.096Z,98967.28
2022-11-21T14:36:05.799Z,98970.34
2022-11-21T14:38:36.338Z,98961.28
2022-11-21T14:41:21.017Z,98956.03
2022-11-21T14:43:50.357Z,98951.84
2022-11-21T14:46:19.947Z,98947.69
2022-11-21T14:48:49.272Z,98941.88
2022-11-21T14:51:21.985Z,98938.13
2022-11-21T14:53:51.367Z,98920.69
2022-11-21T14:56:23.180Z,98914.78
2022-11-21T14:58:53.111Z,98921.22
2022-11-21T15:01:22.862Z,98915.88
2022-11-21T15:03:58.879Z,98908.78
2022-11-21T15:06:33.468Z,98914.38
2022-11-21T15:10:11.391Z,98909.38
2022-11-21T15:11:53.340Z,98904.38
2022-11-21T15:14:24.208Z,98892.91
2022-11-21T15:16:53.973Z,98894.41
2022-11-21T15:19:23.801Z,98892.63
2022-11-21T15:21:56.715Z,98886.72
2022-11-21T15:24:40.413Z,98868.91
2022-11-21T15:27:24.881Z,98865.44
2022-11-21T15:30:03.359Z,98854.78
2022-11-21T15:32:32.762Z,98843.38
2022-11-21T15:35:02.060Z,98833.72
2022-11-21T15:37:36.290Z,98825.97
2022-11-21T15:40:05.705Z,98817.88
2022-11-21T15:42:38.733Z,98809.16
2022-11-21T15:45:23.907Z,98809.22
2022-11-21T15:47:53.313Z,98806.28
2022-11-21T15:50:24.784Z,98798.09
2022-11-21T15:52:56.866Z,98798.16
2022-11-21T15:55:29.062Z,98796.91
2022-11-21T15:57:58.422Z,98797.84
2022-11-21T16:00:27.785Z,98795.38
2022-11-21T16:02:57.322Z,98796.38
2022-11-21T16:05:26.766Z,98792.59
2022-11-21T16:07:58.753Z,98790.97
2022-11-21T16:10:28.247Z,98776.19
2022-11-21T16:12:57.826Z,98769.25
2022-11-21T16:15:27.089Z,98771.69
2022-11-21T16:17:56.449Z,98759.41
2022-11-21T16:20:25.783Z,98757.44
2022-11-21T16:22:55.093Z,98759.22
2022-11-21T16:25:27.066Z,98755.94
2022-11-21T16:27:56.439Z,98763.44
2022-11-21T16:30:25.718Z,98764.69
2022-11-21T16:32:56.497Z,98759.22
2022-11-21T16:35:25.947Z,98758.28
2022-11-21T16:37:55.205Z,98761.09
2022-11-21T16:40:27.137Z,98759.56
2022-11-21T16:42:57.506Z,98752.06
2022-11-21T16:45:26.970Z,98745.03
2022-11-21T16:47:56.283Z,98741.91
2022-11-21T16:50:25.611Z,98733.66
2022-11-21T16:52:54.894Z,98730.00
2022-11-21T16:55:26.919Z,98735.34
2022-11-21T16:57:57.928Z,98721.91
2022-11-21T17:00:27.402Z,98719.78
2022-11-21T17:02:57.095Z,98706.13
2022-11-21T17:05:26.487Z,98699.94
2022-11-21T17:07:55.849Z,98690.31
2022-11-21T17:10:33.681Z,98686.44
2022-11-21T17:13:03.412Z,98677.72
2022-11-21T17:15:32.725Z,98679.50
2022-11-21T17:18:02.746Z,98675.13
2022-11-21T17:20:32.147Z,98668.75
2022-11-21T17:23:02.771Z,98672.50
2022-11-21T17:25:34.992Z,98666.94
2022-11-21T17:28:04.346Z,98663.81
2022-11-21T17:30:35.344Z,98657.47
2022-11-21T17:33:05.091Z,98656.53
2022-11-21T17:35:34.362Z,98639.31
2022-11-21T17:38:05.022Z,98632.22
2022-11-21T17:40:37.456Z,98631.88
2022-11-21T17:43:06.829Z,98630.44
2022-11-21T17:45:37.256Z,98633.06
2022-11-21T17:48:06.758Z,98624.44
2022-11-21T17:50:36.091Z,98626.88
2022-11-21T17:53:05.412Z,98615.41
2022-11-21T17:55:37.341Z,98624.84
2022-11-21T17:58:06.700Z,98613.72
2022-11-21T18:00:35.998Z,98615.31
2022-11-21T18:03:05.302Z,98617.53
2022-11-21T18:05:34.595Z,98609.47
2022-11-21T18:08:04.138Z,98601.53
2022-11-21T18:10:43.363Z,98607.28
2022-11-21T18:13:16.067Z,98626.63
2022-11-21T18:15:45.408Z,98636.91
2022-11-21T18:18:14.679Z,98638.53
2022-11-21T18:20:44.073Z,98642.66
2022-11-21T18:23:13.433Z,98650.78
2022-11-21T18:25:42.755Z,98656.59
2022-11-21T18:28:12.070Z,98636.38
2022-11-21T18:30:44.083Z,98636.47
2022-11-21T18:33:17.522Z,98655.41
2022-11-21T18:35:48.230Z,98661.38
2022-11-21T18:38:46.202Z,98655.81
2022-11-21T18:41:07.262Z,98639.53
2022-11-21T18:43:36.972Z,98633.91
2022-11-21T18:46:09.693Z,98604.25
2022-11-21T18:49:00.578Z,98584.97
2022-11-21T18:51:29.252Z,98591.34
2022-11-21T18:53:59.134Z,98583.56
2022-11-21T18:56:29.337Z,98590.31
2022-11-21T18:58:59.366Z,98587.69
2022-11-21T19:01:33.044Z,98583.19
2022-11-21T19:04:02.577Z,98579.94
2022-11-21T19:06:32.017Z,98565.06
2022-11-21T19:09:01.600Z,98570.22
2022-11-21T19:11:31.352Z,98566.66
2022-11-21T19:14:00.803Z,98569.38
2022-11-21T19:16:34.412Z,98561.22
2022-11-21T19:21:53.672Z,98549.38
2022-11-21T19:24:22.998Z,98557.59
2022-11-21T19:26:52.778Z,98540.56
2022-11-21T19:29:22.120Z,98537.13
2022-11-21T19:31:54.111Z,98516.06
2022-11-21T19:34:23.735Z,98513.25
2022-11-21T19:36:53.072Z,98522.03
2022-11-21T19:39:22.397Z,98510.47
2022-11-21T19:41:51.902Z,98513.63
2022-11-21T19:44:21.350Z,98518.97
2022-11-21T19:46:50.726Z,98513.50
2022-11-21T19:49:22.920Z,98513.81
2022-11-21T19:51:52.301Z,98511.00
2022-11-21T19:54:21.610Z,98510.25
2022-11-21T19:56:51.145Z,98500.72
2022-11-21T19:59:20.507Z,98503.97
2022-11-21T20:01:52.864Z,98499.56
2022-11-21T20:04:25.196Z,98499.78
2022-11-21T20:06:55.914Z,98498.19
2022-11-21T20:09:25.253Z,98495.28
2022-11-21T20:11:54.974Z,98488.16
2022-11-21T20:14:24.280Z,98482.84
2022-11-21T20:16:54.226Z,98477.66
2022-11-21T20:19:27.101Z,98477.88
2022-11-21T20:21:56.905Z,98482.19
2022-11-21T20:24:26.261Z,98472.53
2022-11-21T20:26:56.133Z,98461.22
2022-11-21T20:29:29.247Z,98446.44
2022-11-21T20:31:59.267Z,98441.19
2022-11-21T20:34:31.515Z,98441.09
2022-11-21T20:37:01.045Z,98440.25
2022-11-21T20:39:32.201Z,98423.41
2022-11-21T20:42:02.667Z,98409.53
2022-11-21T20:45:30.074Z,98406.19
2022-11-21T20:47:21.363Z,98402.56
2022-11-21T20:49:53.329Z,98411.16
2022-11-21T20:55:13.193Z,98405.53
2022-11-21T20:57:43.010Z,98407.00
2022-11-21T21:00:13.322Z,98409.41
2022-11-21T21:02:42.717Z,98395.31
2022-11-21T21:05:14.798Z,98400.72
2022-11-21T21:07:44.314Z,98399.69
2022-11-21T21:10:13.779Z,98395.31
2022-11-21T21:12:48.367Z,98410.94
2022-11-21T21:15:18.151Z,98414.59
2022-11-21T21:17:47.453Z,98402.44
2022-11-21T21:20:19.452Z,98406.81
2022-11-21T21:22:48.779Z,98399.03
2022-11-21T21:25:18.126Z,98402.97
2022-11-21T21:27:50.348Z,98391.75
2022-11-21T21:30:20.294Z,98393.19
2022-11-21T21:32:49.569Z,98391.03
2022-11-21T21:35:21.727Z,98392.72
2022-11-21T21:37:51.233Z,98390.09
2022-11-21T21:40:20.578Z,98392.59
2022-11-21T21:42:49.887Z,98394.94
2022-11-21T21:45:19.341Z,98398.31
2022-11-21T21:47:48.663Z,98389.16
2022-11-21T21:50:18.058Z,98391.28
2022-11-21T21:52:50.009Z,98376.41
2022-11-21T21:55:19.495Z,98376.00
2022-11-21T21:57:52.500Z,98368.72
2022-11-21T22:00:22.156Z,98377.00
2022-11-21T22:02:51.477Z,98376.25
2022-11-21T22:05:20.822Z,98384.22
2022-11-21T22:07:52.771Z,98370.28
2022-11-21T22:10:22.137Z,98376.91
2022-11-21T22:12:51.774Z,98360.63
2022-11-21T22:15:21.058Z,98366.38
2022-11-21T22:17:50.795Z,98368.72
2022-11-21T22:20:20.240Z,98356.34
2022-11-21T22:22:49.970Z,98353.81
2022-11-21T22:25:21.926Z,98351.94
2022-11-21T22:27:51.563Z,98354.66
2022-11-21T22:30:21.040Z,98361.56
2022-11-21T22:32:50.997Z,98361.97
2022-11-21T22:35:20.344Z,98353.81
2022-11-21T22:37:51.939Z,98349.59
2022-11-21T22:40:23.962Z,98348.84
2022-11-21T22:42:53.774Z,98341.63
2022-11-21T22:45:23.026Z,98365.44
2022-11-21T22:47:52.408Z,98347.56
2022-11-21T22:50:21.700Z,98342.53
2022-11-21T22:52:51.107Z,98346.88
2022-11-21T22:55:20.477Z,98351.66
2022-11-21T22:57:52.365Z,98339.97
2022-11-21T23:00:21.886Z,98334.75
2022-11-21T23:02:51.210Z,98340.31
2022-11-21T23:05:20.665Z,98332.63
2022-11-21T23:07:50.001Z,98335.53
2022-11-21T23:10:19.929Z,98326.38
2022-11-21T23:12:51.874Z,98326.28
2022-11-21T23:15:21.200Z,98325.53
2022-11-21T23:17:53.226Z,98316.28
2022-11-21T23:20:22.579Z,98313.13
2022-11-21T23:22:51.953Z,98316.47
2022-11-21T23:25:21.285Z,98329.66
2022-11-21T23:27:53.122Z,98310.69
2022-11-21T23:30:22.765Z,98313.19
2022-11-21T23:32:52.039Z,98300.69
2022-11-21T23:35:21.396Z,98302.66
2022-11-21T23:37:50.794Z,98300.78
2022-11-21T23:40:20.327Z,98298.91
2022-11-21T23:42:49.599Z,98313.88
2022-11-21T23:45:21.616Z,98297.69
2022-11-21T23:47:51.090Z,98307.69
2022-11-21T23:50:21.196Z,98298.16
2022-11-21T23:52:50.949Z,98297.97
2022-11-21T23:55:20.411Z,98285.25
2022-11-21T23:57:50.217Z,98273.94
